createdAt,value
2023-03-23T00:02:15.260Z,10.2
2023-03-23T00:12:17.279Z,10.3
2023-03-23T00:22:19.788Z,10.3
2023-03-23T00:32:21.894Z,10.3
2023-03-23T00:42:23.932Z,10.4
2023-03-23T00:52:25.675Z,10.5
2023-03-23T01:02:27.842Z,10.6
2023-03-23T01:12:30.293Z,10.8
2023-03-23T01:22:32.551Z,11
2023-03-23T01:32:35.110Z,11.2
2023-03-23T01:42:36.873Z,11.4
2023-03-23T01:52:39.372Z,11.4
2023-03-23T02:02:41.398Z,11.5
2023-03-23T02:12:43.495Z,11.6
2023-03-23T02:22:45.719Z,11.7
2023-03-23T02:32:48.050Z,11.6
2023-03-23T02:52:51.684Z,11.4
2023-03-23T03:02:53.507Z,11.3
2023-03-23T03:12:55.780Z,11.2
2023-03-23T03:22:57.486Z,11.2
2023-03-23T03:32:59.648Z,11.4
2023-03-23T03:43:02.340Z,11.5
2023-03-23T03:53:04.339Z,11.3
2023-03-23T04:03:06.448Z,11.5
2023-03-23T04:13:08.814Z,11.4
2023-03-23T04:23:10.581Z,11.4
2023-03-23T04:33:12.286Z,11.5
2023-03-23T04:43:14.668Z,11.5
2023-03-23T04:53:16.801Z,11.6
2023-03-23T05:03:19.307Z,11.8
2023-03-23T05:13:21.010Z,11.8
2023-03-23T05:23:23.373Z,11.8
2023-03-23T05:33:25.302Z,11.8
2023-03-23T05:43:27.426Z,11.9
2023-03-23T05:53:29.066Z,11.9
2023-03-23T06:03:31.209Z,11.8
2023-03-23T06:13:32.871Z,11.9
2023-03-23T06:23:35.359Z,11.8
2023-03-23T06:33:37.721Z,11.7
2023-03-23T06:43:40.004Z,11.7
2023-03-23T06:53:42.513Z,11.9
2023-03-23T07:03:45.144Z,12
2023-03-23T07:23:49.839Z,12.1
2023-03-23T07:43:53.626Z,12.2
2023-03-23T07:53:56.096Z,12.2
2023-03-23T08:03:58.590Z,12.3
2023-03-23T08:14:00.701Z,12.4
2023-03-23T08:24:03.243Z,12.5
2023-03-23T08:34:04.953Z,12.6
2023-03-23T08:44:07.187Z,12.8
2023-03-23T09:04:11.642Z,12.8
2023-03-23T09:24:16.795Z,12.7
2023-03-23T09:34:19.325Z,12.7
2023-03-23T09:44:21.065Z,12.9
2023-03-23T10:34:32.894Z,9.7
2023-03-23T10:44:34.695Z,9.6
2023-03-23T11:04:38.604Z,9.7
2023-03-23T11:24:43.020Z,9.7
2023-03-23T11:34:45.337Z,9.1
2023-03-23T11:44:47.716Z,9.1
2023-03-23T12:14:54.278Z,9.5
2023-03-23T12:34:58.774Z,9.6
2023-03-23T12:55:02.562Z,9.8
2023-03-23T13:15:07.120Z,10.6
2023-03-23T13:25:09.480Z,10.9
2023-03-23T13:35:11.647Z,10.9
2023-03-23T13:55:16.316Z,11.8
2023-03-23T14:05:18.294Z,11.7
2023-03-23T14:15:20.886Z,11.9
2023-03-23T14:25:22.581Z,12.3
2023-03-23T14:35:24.682Z,12.3
2023-03-23T14:45:27.045Z,12.6
2023-03-23T14:55:29.595Z,12.5
2023-03-23T15:05:31.418Z,12.6
2023-03-23T15:15:33.771Z,12.8
2023-03-23T15:25:35.659Z,12.6
2023-03-23T15:35:37.850Z,12.9
2023-03-23T15:45:39.933Z,13.2
2023-03-23T15:55:42.630Z,13
2023-03-23T16:05:45.305Z,13
2023-03-23T16:15:47.741Z,12.9
2023-03-23T16:25:50.256Z,13.1
2023-03-23T16:35:52.060Z,13.2
2023-03-23T16:45:54.193Z,13.1
2023-03-23T16:55:56.037Z,13
2023-03-23T17:05:58.156Z,12.9
2023-03-23T17:16:00.436Z,12.7
2023-03-23T17:26:02.729Z,12.7
2023-03-23T17:36:05.389Z,12.7
2023-03-23T17:46:07.180Z,12.5
2023-03-23T17:56:09.650Z,12.4
2023-03-23T18:06:12.151Z,12.4
2023-03-23T18:16:14.495Z,12.5
2023-03-23T18:26:16.180Z,12.2
2023-03-23T18:36:18.216Z,12
2023-03-23T18:46:20.435Z,11.7
2023-03-23T18:56:22.953Z,11.6
2023-03-23T19:06:25.463Z,11.5
2023-03-23T19:16:27.263Z,11.4
2023-03-23T19:26:28.952Z,11.5
2023-03-23T19:36:31.344Z,12
2023-03-23T19:46:33.885Z,11.9
2023-03-23T19:56:35.586Z,11.7
2023-03-23T20:16:40.490Z,11.8
2023-03-23T20:26:42.483Z,12
2023-03-23T20:36:44.488Z,11.9
2023-03-23T20:46:46.633Z,12
2023-03-23T20:56:48.722Z,12
2023-03-23T21:06:50.689Z,12
2023-03-23T21:16:53.009Z,12.2
2023-03-23T21:26:55.137Z,12.2
2023-03-23T21:36:57.031Z,12.4
2023-03-23T21:46:59.162Z,12.4
2023-03-23T21:57:08.966Z,12.3
2023-03-23T22:07:11.043Z,12.1
2023-03-23T22:17:12.835Z,11.9
2023-03-23T22:27:14.803Z,11.7
2023-03-23T22:37:16.694Z,11.5
2023-03-23T22:47:18.918Z,11.5
2023-03-23T22:57:21.211Z,11.4
2023-03-23T23:07:22.931Z,11.2
2023-03-23T23:17:24.675Z,11.2
2023-03-23T23:37:29.183Z,10.9
2023-03-23T23:47:31.496Z,10.8
2023-03-23T23:57:33.836Z,10.8
